sensor_id;sensor_type;location;lat;lon;timestamp;P1;durP1;ratioP1;P2;durP2;ratioP2
297;SDS011;133;49.626;9.680;2023-11-19T00:00:27;6.47;;;5.63;;
297;SDS011;133;49.626;9.680;2023-11-19T00:02:52;7.37;;;6.20;;
297;SDS011;133;49.626;9.680;2023-11-19T00:05:18;4.77;;;4.50;;
297;SDS011;133;49.626;9.680;2023-11-19T00:07:44;3.57;;;3.40;;
297;SDS011;133;49.626;9.680;2023-11-19T00:10:10;4.07;;;3.83;;
297;SDS011;133;49.626;9.680;2023-11-19T00:12:37;4.43;;;3.90;;
297;SDS011;133;49.626;9.680;2023-11-19T00:15:03;4.00;;;3.80;;
297;SDS011;133;49.626;9.680;2023-11-19T00:17:30;3.70;;;3.60;;
297;SDS011;133;49.626;9.680;2023-11-19T00:19:56;3.60;;;3.40;;
297;SDS011;133;49.626;9.680;2023-11-19T00:22:22;3.17;;;2.97;;
297;SDS011;133;49.626;9.680;2023-11-19T00:24:48;3.37;;;3.17;;
297;SDS011;133;49.626;9.680;2023-11-19T00:27:13;3.40;;;3.20;;
297;SDS011;133;49.626;9.680;2023-11-19T00:29:39;3.57;;;3.37;;
297;SDS011;133;49.626;9.680;2023-11-19T00:32:05;3.40;;;3.17;;
297;SDS011;133;49.626;9.680;2023-11-19T00:34:32;3.90;;;3.70;;
297;SDS011;133;49.626;9.680;2023-11-19T00:36:58;2.97;;;2.77;;
297;SDS011;133;49.626;9.680;2023-11-19T00:39:23;2.93;;;2.73;;
297;SDS011;133;49.626;9.680;2023-11-19T00:41:49;3.10;;;2.90;;
297;SDS011;133;49.626;9.680;2023-11-19T00:44:14;3.67;;;3.10;;
297;SDS011;133;49.626;9.680;2023-11-19T00:46:40;3.10;;;2.90;;
297;SDS011;133;49.626;9.680;2023-11-19T00:49:05;3.13;;;2.93;;
297;SDS011;133;49.626;9.680;2023-11-19T00:51:31;3.00;;;2.80;;
297;SDS011;133;49.626;9.680;2023-11-19T00:53:57;3.30;;;3.10;;
297;SDS011;133;49.626;9.680;2023-11-19T00:56:24;2.80;;;2.60;;
297;SDS011;133;49.626;9.680;2023-11-19T00:58:49;3.27;;;3.07;;
297;SDS011;133;49.626;9.680;2023-11-19T01:01:15;3.03;;;2.83;;
297;SDS011;133;49.626;9.680;2023-11-19T01:03:40;3.63;;;2.83;;
297;SDS011;133;49.626;9.680;2023-11-19T01:06:06;3.30;;;3.10;;
297;SDS011;133;49.626;9.680;2023-11-19T01:08:33;3.40;;;3.20;;
297;SDS011;133;49.626;9.680;2023-11-19T01:11:00;3.30;;;3.10;;
297;SDS011;133;49.626;9.680;2023-11-19T01:13:27;3.40;;;3.20;;
297;SDS011;133;49.626;9.680;2023-11-19T01:15:53;3.00;;;2.80;;
297;SDS011;133;49.626;9.680;2023-11-19T01:18:18;6.70;;;3.70;;
297;SDS011;133;49.626;9.680;2023-11-19T01:20:44;2.80;;;2.60;;
297;SDS011;133;49.626;9.680;2023-11-19T01:23:09;2.77;;;2.57;;
297;SDS011;133;49.626;9.680;2023-11-19T01:25:35;2.93;;;2.73;;
297;SDS011;133;49.626;9.680;2023-11-19T01:28:02;2.97;;;2.50;;
297;SDS011;133;49.626;9.680;2023-11-19T01:30:27;3.33;;;3.10;;
297;SDS011;133;49.626;9.680;2023-11-19T01:32:53;2.67;;;2.47;;
297;SDS011;133;49.626;9.680;2023-11-19T01:35:19;2.90;;;2.70;;
297;SDS011;133;49.626;9.680;2023-11-19T01:37:44;2.60;;;2.40;;
297;SDS011;133;49.626;9.680;2023-11-19T01:40:10;2.50;;;2.30;;
297;SDS011;133;49.626;9.680;2023-11-19T01:42:39;2.80;;;2.60;;
297;SDS011;133;49.626;9.680;2023-11-19T01:45:06;2.40;;;2.20;;
297;SDS011;133;49.626;9.680;2023-11-19T01:47:35;2.30;;;2.10;;
297;SDS011;133;49.626;9.680;2023-11-19T01:50:01;2.50;;;2.30;;
297;SDS011;133;49.626;9.680;2023-11-19T01:52:31;2.40;;;2.20;;
297;SDS011;133;49.626;9.680;2023-11-19T01:54:59;2.20;;;2.00;;
297;SDS011;133;49.626;9.680;2023-11-19T01:57:25;2.33;;;2.13;;
297;SDS011;133;49.626;9.680;2023-11-19T01:59:51;2.00;;;1.90;;
297;SDS011;133;49.626;9.680;2023-11-19T02:02:17;1.87;;;1.77;;
297;SDS011;133;49.626;9.680;2023-11-19T02:04:47;2.23;;;2.03;;
297;SDS011;133;49.626;9.680;2023-11-19T02:07:14;1.90;;;1.80;;
297;SDS011;133;49.626;9.680;2023-11-19T02:09:43;1.90;;;1.80;;
297;SDS011;133;49.626;9.680;2023-11-19T02:12:09;1.90;;;1.80;;
297;SDS011;133;49.626;9.680;2023-11-19T02:14:36;1.97;;;1.87;;
297;SDS011;133;49.626;9.680;2023-11-19T02:17:02;2.13;;;1.97;;
297;SDS011;133;49.626;9.680;2023-11-19T02:19:29;1.80;;;1.70;;
297;SDS011;133;49.626;9.680;2023-11-19T02:21:54;1.70;;;1.60;;
297;SDS011;133;49.626;9.680;2023-11-19T02:24:21;1.87;;;1.77;;
297;SDS011;133;49.626;9.680;2023-11-19T02:29:32;1.60;;;1.50;;
297;SDS011;133;49.626;9.680;2023-11-19T02:32:00;1.80;;;1.70;;
297;SDS011;133;49.626;9.680;2023-11-19T02:34:28;1.63;;;1.53;;
297;SDS011;133;49.626;9.680;2023-11-19T02:36:53;1.70;;;1.60;;
297;SDS011;133;49.626;9.680;2023-11-19T02:39:19;1.73;;;1.63;;
297;SDS011;133;49.626;9.680;2023-11-19T02:41:46;1.90;;;1.80;;
297;SDS011;133;49.626;9.680;2023-11-19T02:44:15;3.20;;;1.60;;
297;SDS011;133;49.626;9.680;2023-11-19T02:46:41;1.60;;;1.50;;
297;SDS011;133;49.626;9.680;2023-11-19T02:49:07;1.50;;;1.50;;
297;SDS011;133;49.626;9.680;2023-11-19T02:51:33;1.70;;;1.60;;
297;SDS011;133;49.626;9.680;2023-11-19T02:53:59;1.70;;;1.60;;
297;SDS011;133;49.626;9.680;2023-11-19T02:56:25;1.60;;;1.50;;
297;SDS011;133;49.626;9.680;2023-11-19T02:58:51;1.77;;;1.50;;
297;SDS011;133;49.626;9.680;2023-11-19T03:01:24;1.83;;;1.60;;
297;SDS011;133;49.626;9.680;2023-11-19T03:03:59;1.60;;;1.50;;
297;SDS011;133;49.626;9.680;2023-11-19T03:06:26;2.00;;;1.90;;
297;SDS011;133;49.626;9.680;2023-11-19T03:08:54;3.90;;;3.70;;
297;SDS011;133;49.626;9.680;2023-11-19T03:11:19;4.83;;;4.53;;
297;SDS011;133;49.626;9.680;2023-11-19T03:13:45;4.83;;;4.00;;
297;SDS011;133;49.626;9.680;2023-11-19T03:16:11;2.27;;;2.07;;
297;SDS011;133;49.626;9.680;2023-11-19T03:18:37;1.83;;;1.73;;
297;SDS011;133;49.626;9.680;2023-11-19T03:21:04;1.73;;;1.63;;
297;SDS011;133;49.626;9.680;2023-11-19T03:23:33;1.90;;;1.80;;
297;SDS011;133;49.626;9.680;2023-11-19T03:25:59;1.80;;;1.70;;
297;SDS011;133;49.626;9.680;2023-11-19T03:28:28;2.07;;;1.93;;
297;SDS011;133;49.626;9.680;2023-11-19T03:30:54;1.80;;;1.70;;
297;SDS011;133;49.626;9.680;2023-11-19T03:33:20;2.73;;;2.57;;
297;SDS011;133;49.626;9.680;2023-11-19T03:35:45;1.90;;;1.80;;
297;SDS011;133;49.626;9.680;2023-11-19T03:38:11;2.30;;;2.10;;
297;SDS011;133;49.626;9.680;2023-11-19T03:40:36;2.40;;;2.20;;
297;SDS011;133;49.626;9.680;2023-11-19T03:43:03;2.40;;;2.20;;
297;SDS011;133;49.626;9.680;2023-11-19T03:45:29;2.47;;;2.27;;
297;SDS011;133;49.626;9.680;2023-11-19T03:47:55;4.53;;;2.60;;
297;SDS011;133;49.626;9.680;2023-11-19T03:50:20;2.70;;;2.50;;
297;SDS011;133;49.626;9.680;2023-11-19T03:52:46;2.77;;;2.57;;
297;SDS011;133;49.626;9.680;2023-11-19T03:55:12;2.70;;;2.50;;
297;SDS011;133;49.626;9.680;2023-11-19T03:57:38;2.80;;;2.60;;
297;SDS011;133;49.626;9.680;2023-11-19T04:00:04;4.20;;;2.80;;
297;SDS011;133;49.626;9.680;2023-11-19T04:02:39;3.70;;;3.50;;
297;SDS011;133;49.626;9.680;2023-11-19T04:05:05;4.10;;;3.40;;
297;SDS011;133;49.626;9.680;2023-11-19T04:07:31;3.90;;;3.70;;
297;SDS011;133;49.626;9.680;2023-11-19T04:09:57;4.63;;;4.37;;
297;SDS011;133;49.626;9.680;2023-11-19T04:12:23;4.50;;;4.20;;
297;SDS011;133;49.626;9.680;2023-11-19T04:14:49;4.83;;;4.47;;
297;SDS011;133;49.626;9.680;2023-11-19T04:17:14;5.50;;;4.57;;
297;SDS011;133;49.626;9.680;2023-11-19T04:19:40;5.40;;;5.10;;
297;SDS011;133;49.626;9.680;2023-11-19T04:22:09;5.77;;;5.23;;
297;SDS011;133;49.626;9.680;2023-11-19T04:24:35;5.37;;;5.07;;
297;SDS011;133;49.626;9.680;2023-11-19T04:27:01;6.30;;;5.77;;
297;SDS011;133;49.626;9.680;2023-11-19T04:29:28;6.23;;;5.60;;
297;SDS011;133;49.626;9.680;2023-11-19T04:31:55;6.47;;;6.00;;
297;SDS011;133;49.626;9.680;2023-11-19T04:34:21;4.80;;;4.50;;
297;SDS011;133;49.626;9.680;2023-11-19T04:36:47;4.70;;;4.40;;
297;SDS011;133;49.626;9.680;2023-11-19T04:39:12;5.60;;;5.00;;
297;SDS011;133;49.626;9.680;2023-11-19T04:41:49;5.10;;;4.60;;
297;SDS011;133;49.626;9.680;2023-11-19T04:44:15;4.77;;;4.47;;
297;SDS011;133;49.626;9.680;2023-11-19T04:46:42;4.60;;;4.30;;
297;SDS011;133;49.626;9.680;2023-11-19T04:49:14;3.80;;;3.60;;
297;SDS011;133;49.626;9.680;2023-11-19T04:51:40;4.37;;;4.07;;
297;SDS011;133;49.626;9.680;2023-11-19T04:54:07;4.17;;;3.93;;
297;SDS011;133;49.626;9.680;2023-11-19T04:56:33;4.30;;;4.00;;
297;SDS011;133;49.626;9.680;2023-11-19T04:59:02;3.60;;;3.40;;
297;SDS011;133;49.626;9.680;2023-11-19T05:01:28;4.37;;;4.10;;
297;SDS011;133;49.626;9.680;2023-11-19T05:03:56;3.03;;;2.83;;
297;SDS011;133;49.626;9.680;2023-11-19T05:06:25;3.30;;;3.10;;
297;SDS011;133;49.626;9.680;2023-11-19T05:08:58;2.87;;;2.60;;
297;SDS011;133;49.626;9.680;2023-11-19T05:11:33;2.77;;;2.57;;
297;SDS011;133;49.626;9.680;2023-11-19T05:13:59;2.80;;;2.60;;
297;SDS011;133;49.626;9.680;2023-11-19T05:16:25;2.80;;;2.60;;
297;SDS011;133;49.626;9.680;2023-11-19T05:18:51;2.90;;;2.70;;
297;SDS011;133;49.626;9.680;2023-11-19T05:21:16;2.93;;;2.73;;
297;SDS011;133;49.626;9.680;2023-11-19T05:23:42;3.20;;;3.00;;
297;SDS011;133;49.626;9.680;2023-11-19T05:26:08;3.40;;;3.20;;
297;SDS011;133;49.626;9.680;2023-11-19T05:28:35;2.97;;;2.77;;
297;SDS011;133;49.626;9.680;2023-11-19T05:31:02;3.50;;;3.30;;
297;SDS011;133;49.626;9.680;2023-11-19T05:33:28;3.40;;;3.20;;
297;SDS011;133;49.626;9.680;2023-11-19T05:35:54;3.43;;;3.23;;
297;SDS011;133;49.626;9.680;2023-11-19T05:38:19;3.50;;;3.30;;
297;SDS011;133;49.626;9.680;2023-11-19T05:40:46;4.33;;;3.20;;
297;SDS011;133;49.626;9.680;2023-11-19T05:43:13;4.00;;;3.80;;
297;SDS011;133;49.626;9.680;2023-11-19T05:45:39;3.70;;;3.50;;
297;SDS011;133;49.626;9.680;2023-11-19T05:48:05;3.43;;;3.23;;
297;SDS011;133;49.626;9.680;2023-11-19T05:50:31;3.37;;;3.17;;
297;SDS011;133;49.626;9.680;2023-11-19T05:52:56;4.13;;;3.57;;
297;SDS011;133;49.626;9.680;2023-11-19T05:55:22;3.40;;;3.20;;
297;SDS011;133;49.626;9.680;2023-11-19T05:57:48;3.30;;;3.10;;
297;SDS011;133;49.626;9.680;2023-11-19T06:00:14;3.30;;;3.10;;
297;SDS011;133;49.626;9.680;2023-11-19T06:02:40;3.37;;;3.17;;
297;SDS011;133;49.626;9.680;2023-11-19T06:05:06;3.57;;;3.37;;
297;SDS011;133;49.626;9.680;2023-11-19T06:07:32;3.60;;;3.40;;
297;SDS011;133;49.626;9.680;2023-11-19T06:09:58;3.80;;;3.60;;
297;SDS011;133;49.626;9.680;2023-11-19T06:12:24;3.83;;;3.63;;
297;SDS011;133;49.626;9.680;2023-11-19T06:14:49;3.37;;;3.17;;
297;SDS011;133;49.626;9.680;2023-11-19T06:17:15;3.20;;;3.00;;
297;SDS011;133;49.626;9.680;2023-11-19T06:19:40;3.43;;;3.23;;
297;SDS011;133;49.626;9.680;2023-11-19T06:22:06;3.03;;;2.83;;
297;SDS011;133;49.626;9.680;2023-11-19T06:24:31;3.37;;;3.17;;
297;SDS011;133;49.626;9.680;2023-11-19T06:26:57;2.90;;;2.70;;
297;SDS011;133;49.626;9.680;2023-11-19T06:29:23;2.90;;;2.70;;
297;SDS011;133;49.626;9.680;2023-11-19T06:31:49;3.60;;;3.40;;
297;SDS011;133;49.626;9.680;2023-11-19T06:34:14;2.70;;;2.50;;
297;SDS011;133;49.626;9.680;2023-11-19T06:36:40;2.60;;;2.40;;
297;SDS011;133;49.626;9.680;2023-11-19T06:39:08;2.80;;;2.60;;
297;SDS011;133;49.626;9.680;2023-11-19T06:41:34;4.00;;;2.30;;
297;SDS011;133;49.626;9.680;2023-11-19T06:43:59;3.27;;;3.07;;
297;SDS011;133;49.626;9.680;2023-11-19T06:46:25;2.57;;;2.37;;
297;SDS011;133;49.626;9.680;2023-11-19T06:48:50;2.30;;;2.10;;
297;SDS011;133;49.626;9.680;2023-11-19T06:51:16;2.40;;;2.20;;
297;SDS011;133;49.626;9.680;2023-11-19T06:53:45;2.60;;;2.40;;
297;SDS011;133;49.626;9.680;2023-11-19T06:56:20;3.10;;;2.90;;
297;SDS011;133;49.626;9.680;2023-11-19T06:58:46;3.50;;;3.30;;
297;SDS011;133;49.626;9.680;2023-11-19T07:01:13;3.80;;;3.60;;
297;SDS011;133;49.626;9.680;2023-11-19T07:03:44;4.27;;;4.00;;
297;SDS011;133;49.626;9.680;2023-11-19T07:06:13;4.03;;;3.83;;
297;SDS011;133;49.626;9.680;2023-11-19T07:08:39;4.47;;;4.17;;
297;SDS011;133;49.626;9.680;2023-11-19T07:11:10;3.73;;;3.53;;
297;SDS011;133;49.626;9.680;2023-11-19T07:13:37;3.70;;;3.50;;
297;SDS011;133;49.626;9.680;2023-11-19T07:16:03;4.53;;;4.03;;
297;SDS011;133;49.626;9.680;2023-11-19T07:18:29;4.03;;;3.83;;
297;SDS011;133;49.626;9.680;2023-11-19T07:20:54;3.83;;;3.63;;
297;SDS011;133;49.626;9.680;2023-11-19T07:23:20;3.77;;;3.57;;
297;SDS011;133;49.626;9.680;2023-11-19T07:25:46;3.80;;;3.60;;
297;SDS011;133;49.626;9.680;2023-11-19T07:28:12;5.10;;;4.80;;
297;SDS011;133;49.626;9.680;2023-11-19T07:30:38;10.43;;;7.90;;
297;SDS011;133;49.626;9.680;2023-11-19T07:33:04;5.30;;;5.00;;
297;SDS011;133;49.626;9.680;2023-11-19T07:35:30;7.30;;;6.90;;
297;SDS011;133;49.626;9.680;2023-11-19T07:37:56;6.43;;;5.50;;
297;SDS011;133;49.626;9.680;2023-11-19T07:40:22;5.50;;;5.20;;
297;SDS011;133;49.626;9.680;2023-11-19T07:42:51;5.30;;;5.00;;
297;SDS011;133;49.626;9.680;2023-11-19T07:45:17;3.70;;;3.50;;
297;SDS011;133;49.626;9.680;2023-11-19T07:47:42;4.43;;;4.13;;
297;SDS011;133;49.626;9.680;2023-11-19T07:50:11;3.53;;;3.33;;
297;SDS011;133;49.626;9.680;2023-11-19T07:52:39;3.73;;;3.53;;
297;SDS011;133;49.626;9.680;2023-11-19T07:55:04;4.40;;;3.90;;
297;SDS011;133;49.626;9.680;2023-11-19T07:57:30;4.50;;;3.30;;
297;SDS011;133;49.626;9.680;2023-11-19T07:59:56;3.47;;;3.27;;
297;SDS011;133;49.626;9.680;2023-11-19T08:02:22;4.00;;;3.80;;
297;SDS011;133;49.626;9.680;2023-11-19T08:04:49;3.40;;;3.20;;
297;SDS011;133;49.626;9.680;2023-11-19T08:07:17;3.13;;;2.93;;
297;SDS011;133;49.626;9.680;2023-11-19T08:09:43;5.50;;;2.90;;
297;SDS011;133;49.626;9.680;2023-11-19T08:12:08;2.77;;;2.57;;
297;SDS011;133;49.626;9.680;2023-11-19T08:14:35;3.50;;;3.30;;
297;SDS011;133;49.626;9.680;2023-11-19T08:17:00;4.30;;;4.00;;
297;SDS011;133;49.626;9.680;2023-11-19T08:19:26;3.97;;;3.13;;
297;SDS011;133;49.626;9.680;2023-11-19T08:21:51;3.27;;;3.07;;
297;SDS011;133;49.626;9.680;2023-11-19T08:24:17;8.93;;;7.77;;
297;SDS011;133;49.626;9.680;2023-11-19T08:26:42;6.60;;;5.83;;
297;SDS011;133;49.626;9.680;2023-11-19T08:29:08;3.60;;;3.40;;
297;SDS011;133;49.626;9.680;2023-11-19T08:31:34;3.37;;;3.17;;
297;SDS011;133;49.626;9.680;2023-11-19T08:34:00;3.00;;;2.80;;
297;SDS011;133;49.626;9.680;2023-11-19T08:36:25;3.30;;;3.10;;
297;SDS011;133;49.626;9.680;2023-11-19T08:38:52;3.73;;;2.33;;
297;SDS011;133;49.626;9.680;2023-11-19T08:41:18;3.10;;;2.90;;
297;SDS011;133;49.626;9.680;2023-11-19T08:43:45;4.73;;;4.10;;
297;SDS011;133;49.626;9.680;2023-11-19T08:46:11;6.87;;;4.37;;
297;SDS011;133;49.626;9.680;2023-11-19T08:48:37;8.50;;;5.93;;
297;SDS011;133;49.626;9.680;2023-11-19T08:51:03;5.10;;;4.07;;
297;SDS011;133;49.626;9.680;2023-11-19T08:53:29;7.03;;;4.40;;
297;SDS011;133;49.626;9.680;2023-11-19T08:55:55;2.73;;;2.53;;
297;SDS011;133;49.626;9.680;2023-11-19T08:58:20;2.80;;;2.60;;
297;SDS011;133;49.626;9.680;2023-11-19T09:00:46;3.03;;;2.83;;
297;SDS011;133;49.626;9.680;2023-11-19T09:03:12;3.40;;;3.30;;
297;SDS011;133;49.626;9.680;2023-11-19T09:05:37;3.17;;;2.83;;
297;SDS011;133;49.626;9.680;2023-11-19T09:08:03;5.00;;;3.53;;
297;SDS011;133;49.626;9.680;2023-11-19T09:10:29;3.47;;;2.50;;
297;SDS011;133;49.626;9.680;2023-11-19T09:12:55;3.60;;;2.63;;
297;SDS011;133;49.626;9.680;2023-11-19T09:15:21;3.20;;;2.30;;
297;SDS011;133;49.626;9.680;2023-11-19T09:17:46;3.50;;;3.00;;
297;SDS011;133;49.626;9.680;2023-11-19T09:20:12;2.80;;;2.63;;
297;SDS011;133;49.626;9.680;2023-11-19T09:22:40;6.80;;;2.63;;
297;SDS011;133;49.626;9.680;2023-11-19T09:25:06;4.20;;;2.47;;
297;SDS011;133;49.626;9.680;2023-11-19T09:27:32;2.67;;;2.50;;
297;SDS011;133;49.626;9.680;2023-11-19T09:29:58;4.37;;;2.57;;
297;SDS011;133;49.626;9.680;2023-11-19T09:32:23;3.20;;;2.40;;
297;SDS011;133;49.626;9.680;2023-11-19T09:34:50;6.23;;;2.40;;
297;SDS011;133;49.626;9.680;2023-11-19T09:37:15;2.47;;;2.30;;
297;SDS011;133;49.626;9.680;2023-11-19T09:39:41;2.80;;;2.63;;
297;SDS011;133;49.626;9.680;2023-11-19T09:42:10;3.10;;;2.70;;
297;SDS011;133;49.626;9.680;2023-11-19T09:44:36;2.80;;;2.60;;
297;SDS011;133;49.626;9.680;2023-11-19T09:47:04;3.40;;;3.20;;
297;SDS011;133;49.626;9.680;2023-11-19T09:49:30;2.73;;;2.53;;
297;SDS011;133;49.626;9.680;2023-11-19T09:51:56;3.60;;;2.00;;
297;SDS011;133;49.626;9.680;2023-11-19T09:54:22;2.40;;;2.20;;
297;SDS011;133;49.626;9.680;2023-11-19T09:56:48;2.70;;;2.33;;
297;SDS011;133;49.626;9.680;2023-11-19T09:59:14;1.97;;;1.90;;
297;SDS011;133;49.626;9.680;2023-11-19T10:01:40;3.03;;;2.10;;
297;SDS011;133;49.626;9.680;2023-11-19T10:04:07;1.90;;;1.80;;
297;SDS011;133;49.626;9.680;2023-11-19T10:06:34;2.67;;;2.33;;
297;SDS011;133;49.626;9.680;2023-11-19T10:09:00;3.00;;;2.60;;
297;SDS011;133;49.626;9.680;2023-11-19T10:11:26;4.80;;;2.30;;
297;SDS011;133;49.626;9.680;2023-11-19T10:13:53;4.33;;;2.30;;
297;SDS011;133;49.626;9.680;2023-11-19T10:16:19;3.80;;;1.90;;
297;SDS011;133;49.626;9.680;2023-11-19T10:18:45;2.83;;;2.60;;
297;SDS011;133;49.626;9.680;2023-11-19T10:21:14;3.00;;;2.00;;
297;SDS011;133;49.626;9.680;2023-11-19T10:24:02;3.00;;;2.47;;
297;SDS011;133;49.626;9.680;2023-11-19T10:26:27;4.33;;;2.30;;
297;SDS011;133;49.626;9.680;2023-11-19T10:28:54;3.30;;;2.20;;
297;SDS011;133;49.626;9.680;2023-11-19T10:31:21;3.10;;;2.40;;
297;SDS011;133;49.626;9.680;2023-11-19T10:33:50;3.83;;;2.00;;
297;SDS011;133;49.626;9.680;2023-11-19T10:36:16;2.70;;;1.90;;
297;SDS011;133;49.626;9.680;2023-11-19T10:38:51;6.40;;;2.37;;
297;SDS011;133;49.626;9.680;2023-11-19T10:41:30;4.83;;;2.27;;
297;SDS011;133;49.626;9.680;2023-11-19T10:43:57;4.60;;;3.60;;
297;SDS011;133;49.626;9.680;2023-11-19T10:46:23;4.73;;;2.50;;
297;SDS011;133;49.626;9.680;2023-11-19T10:49:03;2.83;;;2.50;;
297;SDS011;133;49.626;9.680;2023-11-19T10:51:29;2.53;;;2.07;;
297;SDS011;133;49.626;9.680;2023-11-19T10:53:54;11.73;;;5.10;;
297;SDS011;133;49.626;9.680;2023-11-19T10:56:29;12.20;;;7.10;;
297;SDS011;133;49.626;9.680;2023-11-19T10:58:56;3.60;;;3.40;;
297;SDS011;133;49.626;9.680;2023-11-19T11:01:24;3.00;;;2.73;;
297;SDS011;133;49.626;9.680;2023-11-19T11:03:55;3.73;;;2.67;;
297;SDS011;133;49.626;9.680;2023-11-19T11:06:24;4.00;;;3.00;;
297;SDS011;133;49.626;9.680;2023-11-19T11:08:52;4.53;;;3.50;;
297;SDS011;133;49.626;9.680;2023-11-19T11:11:19;5.20;;;2.83;;
297;SDS011;133;49.626;9.680;2023-11-19T11:13:49;4.23;;;2.40;;
297;SDS011;133;49.626;9.680;2023-11-19T11:16:18;4.13;;;3.00;;
297;SDS011;133;49.626;9.680;2023-11-19T11:18:48;4.43;;;3.53;;
297;SDS011;133;49.626;9.680;2023-11-19T11:21:17;21.50;;;10.50;;
297;SDS011;133;49.626;9.680;2023-11-19T11:23:54;13.47;;;7.40;;
297;SDS011;133;49.626;9.680;2023-11-19T11:32:30;6.77;;;4.70;;
297;SDS011;133;49.626;9.680;2023-11-19T11:35:21;11.10;;;7.07;;
297;SDS011;133;49.626;9.680;2023-11-19T11:38:26;9.50;;;6.10;;
297;SDS011;133;49.626;9.680;2023-11-19T11:41:35;15.40;;;8.93;;
297;SDS011;133;49.626;9.680;2023-11-19T11:43:44;17.57;;;7.90;;
297;SDS011;133;49.626;9.680;2023-11-19T11:49:01;20.10;;;10.23;;
297;SDS011;133;49.626;9.680;2023-11-19T11:59:45;3.07;;;2.43;;
297;SDS011;133;49.626;9.680;2023-11-19T12:02:12;3.10;;;2.40;;
297;SDS011;133;49.626;9.680;2023-11-19T12:04:39;3.20;;;2.20;;
297;SDS011;133;49.626;9.680;2023-11-19T12:07:13;5.77;;;2.07;;
297;SDS011;133;49.626;9.680;2023-11-19T12:09:41;3.33;;;1.93;;
297;SDS011;133;49.626;9.680;2023-11-19T12:12:23;4.50;;;2.20;;
297;SDS011;133;49.626;9.680;2023-11-19T12:20:07;4.70;;;2.10;;
297;SDS011;133;49.626;9.680;2023-11-19T12:22:40;3.53;;;2.10;;
297;SDS011;133;49.626;9.680;2023-11-19T12:25:07;4.23;;;2.00;;
297;SDS011;133;49.626;9.680;2023-11-19T12:27:34;3.03;;;2.43;;
297;SDS011;133;49.626;9.680;2023-11-19T12:30:00;2.97;;;1.90;;
297;SDS011;133;49.626;9.680;2023-11-19T12:32:37;4.63;;;2.10;;
297;SDS011;133;49.626;9.680;2023-11-19T12:35:11;2.90;;;2.67;;
297;SDS011;133;49.626;9.680;2023-11-19T12:37:44;2.80;;;2.17;;
297;SDS011;133;49.626;9.680;2023-11-19T12:40:18;3.00;;;2.20;;
297;SDS011;133;49.626;9.680;2023-11-19T12:42:45;2.83;;;2.17;;
297;SDS011;133;49.626;9.680;2023-11-19T12:45:12;4.40;;;2.63;;
297;SDS011;133;49.626;9.680;2023-11-19T12:47:39;3.23;;;3.03;;
297;SDS011;133;49.626;9.680;2023-11-19T12:50:08;2.83;;;2.63;;
297;SDS011;133;49.626;9.680;2023-11-19T12:52:35;2.40;;;2.10;;
297;SDS011;133;49.626;9.680;2023-11-19T12:55:02;3.00;;;2.47;;
297;SDS011;133;49.626;9.680;2023-11-19T12:57:47;6.17;;;2.90;;
297;SDS011;133;49.626;9.680;2023-11-19T13:00:20;2.43;;;2.20;;
297;SDS011;133;49.626;9.680;2023-11-19T13:02:53;2.60;;;2.50;;
297;SDS011;133;49.626;9.680;2023-11-19T13:08:03;3.87;;;2.77;;
297;SDS011;133;49.626;9.680;2023-11-19T13:10:54;5.90;;;2.47;;
297;SDS011;133;49.626;9.680;2023-11-19T13:13:19;2.80;;;2.60;;
297;SDS011;133;49.626;9.680;2023-11-19T13:15:45;3.17;;;2.33;;
297;SDS011;133;49.626;9.680;2023-11-19T13:18:11;4.07;;;2.43;;
297;SDS011;133;49.626;9.680;2023-11-19T13:20:37;3.10;;;2.50;;
297;SDS011;133;49.626;9.680;2023-11-19T13:23:04;4.13;;;2.50;;
297;SDS011;133;49.626;9.680;2023-11-19T13:25:32;3.50;;;2.30;;
297;SDS011;133;49.626;9.680;2023-11-19T13:27:58;7.80;;;2.93;;
297;SDS011;133;49.626;9.680;2023-11-19T13:30:24;5.73;;;2.77;;
297;SDS011;133;49.626;9.680;2023-11-19T13:32:50;4.30;;;2.90;;
297;SDS011;133;49.626;9.680;2023-11-19T13:35:16;2.70;;;2.50;;
297;SDS011;133;49.626;9.680;2023-11-19T13:37:43;3.60;;;2.60;;
297;SDS011;133;49.626;9.680;2023-11-19T13:40:09;4.27;;;2.10;;
297;SDS011;133;49.626;9.680;2023-11-19T13:42:38;6.10;;;2.80;;
297;SDS011;133;49.626;9.680;2023-11-19T13:45:06;5.87;;;2.83;;
297;SDS011;133;49.626;9.680;2023-11-19T13:47:35;5.67;;;2.50;;
297;SDS011;133;49.626;9.680;2023-11-19T13:50:01;11.33;;;2.60;;
297;SDS011;133;49.626;9.680;2023-11-19T13:52:31;4.90;;;2.60;;
297;SDS011;133;49.626;9.680;2023-11-19T13:54:56;4.30;;;2.40;;
297;SDS011;133;49.626;9.680;2023-11-19T13:57:22;4.47;;;2.40;;
297;SDS011;133;49.626;9.680;2023-11-19T13:59:47;5.23;;;2.60;;
297;SDS011;133;49.626;9.680;2023-11-19T14:02:13;3.63;;;2.50;;
297;SDS011;133;49.626;9.680;2023-11-19T14:04:38;3.37;;;2.23;;
297;SDS011;133;49.626;9.680;2023-11-19T14:07:04;3.83;;;2.60;;
297;SDS011;133;49.626;9.680;2023-11-19T14:09:29;4.47;;;2.23;;
297;SDS011;133;49.626;9.680;2023-11-19T14:11:55;5.30;;;2.40;;
297;SDS011;133;49.626;9.680;2023-11-19T14:14:21;3.17;;;2.50;;
297;SDS011;133;49.626;9.680;2023-11-19T14:16:46;6.20;;;3.70;;
297;SDS011;133;49.626;9.680;2023-11-19T14:19:12;18.23;;;8.67;;
297;SDS011;133;49.626;9.680;2023-11-19T14:21:38;18.73;;;8.83;;
297;SDS011;133;49.626;9.680;2023-11-19T14:24:04;13.77;;;6.57;;
297;SDS011;133;49.626;9.680;2023-11-19T14:26:30;9.00;;;5.10;;
297;SDS011;133;49.626;9.680;2023-11-19T14:28:56;12.07;;;5.90;;
297;SDS011;133;49.626;9.680;2023-11-19T14:31:21;9.40;;;5.50;;
297;SDS011;133;49.626;9.680;2023-11-19T14:33:47;9.00;;;5.70;;
297;SDS011;133;49.626;9.680;2023-11-19T14:36:13;3.10;;;2.90;;
297;SDS011;133;49.626;9.680;2023-11-19T14:38:39;3.73;;;2.70;;
297;SDS011;133;49.626;9.680;2023-11-19T14:41:05;7.57;;;2.43;;
297;SDS011;133;49.626;9.680;2023-11-19T14:43:31;3.57;;;2.80;;
297;SDS011;133;49.626;9.680;2023-11-19T14:45:56;8.33;;;4.00;;
297;SDS011;133;49.626;9.680;2023-11-19T14:48:22;5.93;;;3.50;;
297;SDS011;133;49.626;9.680;2023-11-19T14:50:48;4.47;;;3.40;;
297;SDS011;133;49.626;9.680;2023-11-19T14:53:14;4.60;;;3.67;;
297;SDS011;133;49.626;9.680;2023-11-19T14:55:40;6.70;;;4.20;;
297;SDS011;133;49.626;9.680;2023-11-19T14:58:06;9.70;;;3.87;;
297;SDS011;133;49.626;9.680;2023-11-19T15:00:32;6.30;;;3.40;;
297;SDS011;133;49.626;9.680;2023-11-19T15:02:58;3.80;;;3.60;;
297;SDS011;133;49.626;9.680;2023-11-19T15:05:24;5.67;;;2.60;;
297;SDS011;133;49.626;9.680;2023-11-19T15:07:50;7.23;;;3.00;;
297;SDS011;133;49.626;9.680;2023-11-19T15:10:15;5.60;;;3.50;;
297;SDS011;133;49.626;9.680;2023-11-19T15:12:41;9.07;;;4.83;;
297;SDS011;133;49.626;9.680;2023-11-19T15:15:07;7.93;;;5.20;;
297;SDS011;133;49.626;9.680;2023-11-19T15:17:43;7.80;;;4.87;;
297;SDS011;133;49.626;9.680;2023-11-19T15:20:08;6.37;;;3.73;;
297;SDS011;133;49.626;9.680;2023-11-19T15:22:34;11.40;;;3.73;;
297;SDS011;133;49.626;9.680;2023-11-19T15:25:00;8.70;;;5.20;;
297;SDS011;133;49.626;9.680;2023-11-19T15:27:26;5.90;;;4.00;;
297;SDS011;133;49.626;9.680;2023-11-19T15:29:52;11.23;;;4.47;;
297;SDS011;133;49.626;9.680;2023-11-19T15:32:18;7.57;;;4.97;;
297;SDS011;133;49.626;9.680;2023-11-19T15:34:43;7.07;;;4.50;;
297;SDS011;133;49.626;9.680;2023-11-19T15:37:09;7.37;;;4.27;;
297;SDS011;133;49.626;9.680;2023-11-19T15:39:37;7.83;;;3.50;;
297;SDS011;133;49.626;9.680;2023-11-19T15:42:02;5.70;;;3.83;;
297;SDS011;133;49.626;9.680;2023-11-19T15:44:28;4.60;;;3.30;;
297;SDS011;133;49.626;9.680;2023-11-19T15:46:54;7.00;;;3.97;;
297;SDS011;133;49.626;9.680;2023-11-19T15:49:20;13.57;;;8.60;;
297;SDS011;133;49.626;9.680;2023-11-19T15:51:45;15.70;;;10.00;;
297;SDS011;133;49.626;9.680;2023-11-19T15:54:11;18.73;;;13.53;;
297;SDS011;133;49.626;9.680;2023-11-19T15:56:36;13.03;;;7.07;;
297;SDS011;133;49.626;9.680;2023-11-19T15:59:02;13.50;;;10.03;;
297;SDS011;133;49.626;9.680;2023-11-19T16:01:29;12.10;;;6.40;;
297;SDS011;133;49.626;9.680;2023-11-19T16:03:55;11.43;;;4.87;;
297;SDS011;133;49.626;9.680;2023-11-19T16:06:21;7.17;;;5.30;;
297;SDS011;133;49.626;9.680;2023-11-19T16:08:47;7.07;;;5.50;;
297;SDS011;133;49.626;9.680;2023-11-19T16:11:14;11.20;;;4.97;;